Terminal Aerodrome Forecast
Issued by NWS

Current Version | Previous Version | Text Only | Print | Product List | Glossary Off
Versions: 1 2 3 4 5 6 7 8 9 10 11 12 13 14 15 16 17 18 19 20 21 22 23 24

422
FTUS41 KRLX 020905 AAA
TAFCKB
TAF AMD
KCKB 020905Z 0209/0306 26006KT P6SM OVC040
     FM021200 25007KT P6SM OVC030
     FM021700 26008G15KT P6SM OVC025
     FM022100 26007KT P6SM BKN020=

USA.gov is the U.S. government's official web portal to all federal, state and local government web resources and services.